sensor_id;sensor_type;location;lat;lon;timestamp;temperature;humidity
22950;DHT22;11641;51.018;4.474;2023-02-18T00:00:54;12.40;99.90
22950;DHT22;11641;51.018;4.474;2023-02-18T00:03:24;12.40;99.90
22950;DHT22;11641;51.018;4.474;2023-02-18T00:05:50;12.40;99.90
22950;DHT22;11641;51.018;4.474;2023-02-18T00:08:16;12.40;99.90
22950;DHT22;11641;51.018;4.474;2023-02-18T00:10:42;12.40;99.90
22950;DHT22;11641;51.018;4.474;2023-02-18T00:13:08;12.30;99.90
22950;DHT22;11641;51.018;4.474;2023-02-18T00:15:37;12.40;99.90
22950;DHT22;11641;51.018;4.474;2023-02-18T00:18:03;12.20;99.90
22950;DHT22;11641;51.018;4.474;2023-02-18T00:20:29;12.30;99.90
22950;DHT22;11641;51.018;4.474;2023-02-18T00:22:55;12.20;99.90
22950;DHT22;11641;51.018;4.474;2023-02-18T00:25:21;12.30;99.90
22950;DHT22;11641;51.018;4.474;2023-02-18T00:27:46;12.30;99.90
22950;DHT22;11641;51.018;4.474;2023-02-18T00:30:12;12.10;99.90
22950;DHT22;11641;51.018;4.474;2023-02-18T00:32:40;12.10;99.90
22950;DHT22;11641;51.018;4.474;2023-02-18T00:35:06;12.20;99.90
22950;DHT22;11641;51.018;4.474;2023-02-18T00:37:32;12.20;99.90
22950;DHT22;11641;51.018;4.474;2023-02-18T00:39:58;12.20;99.90
22950;DHT22;11641;51.018;4.474;2023-02-18T00:42:25;12.20;99.90
22950;DHT22;11641;51.018;4.474;2023-02-18T00:44:51;12.20;99.90
22950;DHT22;11641;51.018;4.474;2023-02-18T00:47:19;12.20;99.90
22950;DHT22;11641;51.018;4.474;2023-02-18T00:49:45;12.30;99.90
22950;DHT22;11641;51.018;4.474;2023-02-18T00:52:13;12.10;99.90
22950;DHT22;11641;51.018;4.474;2023-02-18T00:54:39;12.00;99.90
22950;DHT22;11641;51.018;4.474;2023-02-18T00:57:04;11.90;99.90
22950;DHT22;11641;51.018;4.474;2023-02-18T00:59:30;11.90;99.90
22950;DHT22;11641;51.018;4.474;2023-02-18T01:01:56;12.00;99.90
22950;DHT22;11641;51.018;4.474;2023-02-18T01:04:21;11.90;99.90
22950;DHT22;11641;51.018;4.474;2023-02-18T01:06:47;12.10;99.90
22950;DHT22;11641;51.018;4.474;2023-02-18T01:09:12;12.10;99.90
22950;DHT22;11641;51.018;4.474;2023-02-18T01:11:38;12.20;99.90
22950;DHT22;11641;51.018;4.474;2023-02-18T01:14:04;12.40;99.90
22950;DHT22;11641;51.018;4.474;2023-02-18T01:16:29;12.30;99.90
22950;DHT22;11641;51.018;4.474;2023-02-18T01:18:55;12.20;99.90
22950;DHT22;11641;51.018;4.474;2023-02-18T01:21:21;12.20;99.90
22950;DHT22;11641;51.018;4.474;2023-02-18T01:23:52;12.20;99.90
22950;DHT22;11641;51.018;4.474;2023-02-18T01:26:17;12.20;99.90
22950;DHT22;11641;51.018;4.474;2023-02-18T01:28:43;12.20;99.90
22950;DHT22;11641;51.018;4.474;2023-02-18T01:31:11;12.10;99.90
22950;DHT22;11641;51.018;4.474;2023-02-18T01:33:37;12.10;99.90
22950;DHT22;11641;51.018;4.474;2023-02-18T01:36:03;12.00;99.90
22950;DHT22;11641;51.018;4.474;2023-02-18T01:38:31;12.10;99.90
22950;DHT22;11641;51.018;4.474;2023-02-18T01:40:57;12.10;99.90
22950;DHT22;11641;51.018;4.474;2023-02-18T01:43:23;12.00;99.90
22950;DHT22;11641;51.018;4.474;2023-02-18T01:45:55;12.00;99.90
22950;DHT22;11641;51.018;4.474;2023-02-18T01:48:34;12.00;99.90
22950;DHT22;11641;51.018;4.474;2023-02-18T01:51:24;12.00;99.90
22950;DHT22;11641;51.018;4.474;2023-02-18T01:54:00;12.00;99.90
22950;DHT22;11641;51.018;4.474;2023-02-18T01:59:00;11.90;99.90
22950;DHT22;11641;51.018;4.474;2023-02-18T02:01:27;11.90;99.90
22950;DHT22;11641;51.018;4.474;2023-02-18T02:03:53;11.80;99.90
22950;DHT22;11641;51.018;4.474;2023-02-18T02:06:21;11.80;99.90
22950;DHT22;11641;51.018;4.474;2023-02-18T02:08:48;11.70;99.90
22950;DHT22;11641;51.018;4.474;2023-02-18T02:11:22;11.80;99.90
22950;DHT22;11641;51.018;4.474;2023-02-18T02:26:01;11.50;99.90
22950;DHT22;11641;51.018;4.474;2023-02-18T02:36:22;11.60;99.90
22950;DHT22;11641;51.018;4.474;2023-02-18T02:44:29;11.60;99.90
22950;DHT22;11641;51.018;4.474;2023-02-18T02:47:08;11.50;99.90
22950;DHT22;11641;51.018;4.474;2023-02-18T02:49:41;11.60;99.90
22950;DHT22;11641;51.018;4.474;2023-02-18T02:52:18;11.50;99.90
22950;DHT22;11641;51.018;4.474;2023-02-18T02:54:46;11.60;99.90
22950;DHT22;11641;51.018;4.474;2023-02-18T02:59:47;11.70;99.90
22950;DHT22;11641;51.018;4.474;2023-02-18T03:16:41;11.40;99.90
22950;DHT22;11641;51.018;4.474;2023-02-18T03:19:23;11.40;99.90
22950;DHT22;11641;51.018;4.474;2023-02-18T03:22:20;11.30;99.90
22950;DHT22;11641;51.018;4.474;2023-02-18T03:24:55;11.30;99.90
22950;DHT22;11641;51.018;4.474;2023-02-18T03:27:41;11.30;99.90
22950;DHT22;11641;51.018;4.474;2023-02-18T03:30:26;11.30;99.90
22950;DHT22;11641;51.018;4.474;2023-02-18T03:32:57;11.30;99.90
22950;DHT22;11641;51.018;4.474;2023-02-18T03:35:24;11.40;99.90
22950;DHT22;11641;51.018;4.474;2023-02-18T03:38:39;11.40;99.90
22950;DHT22;11641;51.018;4.474;2023-02-18T03:40:43;11.50;99.90
22950;DHT22;11641;51.018;4.474;2023-02-18T03:43:09;11.60;99.90
22950;DHT22;11641;51.018;4.474;2023-02-18T03:45:35;11.60;99.90
22950;DHT22;11641;51.018;4.474;2023-02-18T03:48:03;11.40;99.90
22950;DHT22;11641;51.018;4.474;2023-02-18T03:50:29;11.30;99.90
22950;DHT22;11641;51.018;4.474;2023-02-18T03:52:54;11.40;99.90
22950;DHT22;11641;51.018;4.474;2023-02-18T03:55:20;11.30;99.90
22950;DHT22;11641;51.018;4.474;2023-02-18T03:57:45;11.30;99.90
22950;DHT22;11641;51.018;4.474;2023-02-18T04:00:12;11.40;99.90
22950;DHT22;11641;51.018;4.474;2023-02-18T04:02:37;11.40;99.90
22950;DHT22;11641;51.018;4.474;2023-02-18T04:05:03;11.30;99.90
22950;DHT22;11641;51.018;4.474;2023-02-18T04:07:29;11.30;99.90
22950;DHT22;11641;51.018;4.474;2023-02-18T04:09:54;11.30;99.90
22950;DHT22;11641;51.018;4.474;2023-02-18T04:12:20;11.30;99.90
22950;DHT22;11641;51.018;4.474;2023-02-18T04:14:46;11.30;99.90
22950;DHT22;11641;51.018;4.474;2023-02-18T04:17:11;11.20;99.90
22950;DHT22;11641;51.018;4.474;2023-02-18T04:19:37;11.30;99.90
22950;DHT22;11641;51.018;4.474;2023-02-18T04:22:05;11.30;99.90
22950;DHT22;11641;51.018;4.474;2023-02-18T04:24:30;11.30;99.90
22950;DHT22;11641;51.018;4.474;2023-02-18T04:26:57;11.20;99.90
22950;DHT22;11641;51.018;4.474;2023-02-18T04:29:26;11.30;99.90
22950;DHT22;11641;51.018;4.474;2023-02-18T04:31:51;11.30;99.90
22950;DHT22;11641;51.018;4.474;2023-02-18T04:34:17;11.40;99.90
22950;DHT22;11641;51.018;4.474;2023-02-18T04:36:42;11.30;99.90
22950;DHT22;11641;51.018;4.474;2023-02-18T04:39:11;11.40;99.90
22950;DHT22;11641;51.018;4.474;2023-02-18T04:41:36;11.40;99.90
22950;DHT22;11641;51.018;4.474;2023-02-18T04:44:02;11.40;99.90
22950;DHT22;11641;51.018;4.474;2023-02-18T04:46:28;11.50;99.90
22950;DHT22;11641;51.018;4.474;2023-02-18T04:48:55;11.50;99.90
22950;DHT22;11641;51.018;4.474;2023-02-18T04:51:21;11.50;99.90
22950;DHT22;11641;51.018;4.474;2023-02-18T04:53:47;11.50;99.90
22950;DHT22;11641;51.018;4.474;2023-02-18T04:56:15;11.50;99.90
22950;DHT22;11641;51.018;4.474;2023-02-18T04:58:40;11.40;99.90
22950;DHT22;11641;51.018;4.474;2023-02-18T05:01:06;11.40;99.90
22950;DHT22;11641;51.018;4.474;2023-02-18T05:03:31;11.30;99.90
22950;DHT22;11641;51.018;4.474;2023-02-18T05:05:57;11.30;99.90
22950;DHT22;11641;51.018;4.474;2023-02-18T05:08:23;11.30;99.90
22950;DHT22;11641;51.018;4.474;2023-02-18T05:10:49;11.40;99.90
22950;DHT22;11641;51.018;4.474;2023-02-18T05:13:15;11.40;99.90
22950;DHT22;11641;51.018;4.474;2023-02-18T05:15:43;11.30;99.90
22950;DHT22;11641;51.018;4.474;2023-02-18T05:18:08;11.20;99.90
22950;DHT22;11641;51.018;4.474;2023-02-18T05:20:37;11.20;99.90
22950;DHT22;11641;51.018;4.474;2023-02-18T05:23:02;11.20;99.90
22950;DHT22;11641;51.018;4.474;2023-02-18T05:25:28;11.20;99.90
22950;DHT22;11641;51.018;4.474;2023-02-18T05:27:53;11.20;99.90
22950;DHT22;11641;51.018;4.474;2023-02-18T05:30:21;11.10;99.90
22950;DHT22;11641;51.018;4.474;2023-02-18T05:32:47;11.20;99.90
22950;DHT22;11641;51.018;4.474;2023-02-18T05:35:15;11.20;99.90
22950;DHT22;11641;51.018;4.474;2023-02-18T05:37:40;11.10;99.90
22950;DHT22;11641;51.018;4.474;2023-02-18T05:40:11;11.10;99.90
22950;DHT22;11641;51.018;4.474;2023-02-18T05:42:37;11.00;99.90
22950;DHT22;11641;51.018;4.474;2023-02-18T05:45:03;11.00;99.90
22950;DHT22;11641;51.018;4.474;2023-02-18T05:47:28;10.90;99.90
22950;DHT22;11641;51.018;4.474;2023-02-18T05:49:56;11.00;99.90
22950;DHT22;11641;51.018;4.474;2023-02-18T05:52:22;11.00;99.90
22950;DHT22;11641;51.018;4.474;2023-02-18T05:54:47;11.00;99.90
22950;DHT22;11641;51.018;4.474;2023-02-18T05:57:16;10.90;99.90
22950;DHT22;11641;51.018;4.474;2023-02-18T05:59:42;11.00;99.90
22950;DHT22;11641;51.018;4.474;2023-02-18T06:02:08;10.90;99.90
22950;DHT22;11641;51.018;4.474;2023-02-18T06:04:36;10.90;99.90
22950;DHT22;11641;51.018;4.474;2023-02-18T06:07:01;11.00;99.90
22950;DHT22;11641;51.018;4.474;2023-02-18T06:09:27;10.90;99.90
22950;DHT22;11641;51.018;4.474;2023-02-18T06:11:53;10.90;99.90
22950;DHT22;11641;51.018;4.474;2023-02-18T06:14:19;10.90;99.90
22950;DHT22;11641;51.018;4.474;2023-02-18T06:16:45;11.00;99.90
22950;DHT22;11641;51.018;4.474;2023-02-18T06:19:10;11.10;99.90
22950;DHT22;11641;51.018;4.474;2023-02-18T06:21:38;11.10;99.90
22950;DHT22;11641;51.018;4.474;2023-02-18T06:24:04;11.10;99.90
22950;DHT22;11641;51.018;4.474;2023-02-18T06:26:30;11.10;99.90
22950;DHT22;11641;51.018;4.474;2023-02-18T06:28:55;11.20;99.90
22950;DHT22;11641;51.018;4.474;2023-02-18T06:31:21;11.20;99.90
22950;DHT22;11641;51.018;4.474;2023-02-18T06:33:47;11.20;99.90
22950;DHT22;11641;51.018;4.474;2023-02-18T06:36:12;11.20;99.90
22950;DHT22;11641;51.018;4.474;2023-02-18T06:38:40;11.20;99.90
22950;DHT22;11641;51.018;4.474;2023-02-18T06:41:06;11.20;99.90
22950;DHT22;11641;51.018;4.474;2023-02-18T06:43:32;11.20;99.90
22950;DHT22;11641;51.018;4.474;2023-02-18T06:45:58;11.20;99.90
22950;DHT22;11641;51.018;4.474;2023-02-18T06:48:26;11.20;99.90
22950;DHT22;11641;51.018;4.474;2023-02-18T06:50:51;11.20;99.90
22950;DHT22;11641;51.018;4.474;2023-02-18T06:53:17;11.30;99.90
22950;DHT22;11641;51.018;4.474;2023-02-18T06:55:43;11.20;99.90
22950;DHT22;11641;51.018;4.474;2023-02-18T06:58:13;11.20;99.90
22950;DHT22;11641;51.018;4.474;2023-02-18T07:00:42;11.20;99.90
22950;DHT22;11641;51.018;4.474;2023-02-18T07:03:11;11.20;99.90
22950;DHT22;11641;51.018;4.474;2023-02-18T07:05:37;11.20;99.90
22950;DHT22;11641;51.018;4.474;2023-02-18T07:08:04;11.30;99.90
22950;DHT22;11641;51.018;4.474;2023-02-18T07:10:30;11.30;99.90
22950;DHT22;11641;51.018;4.474;2023-02-18T07:12:56;11.30;99.90
22950;DHT22;11641;51.018;4.474;2023-02-18T07:15:21;11.20;99.90
22950;DHT22;11641;51.018;4.474;2023-02-18T07:17:50;11.10;99.90
22950;DHT22;11641;51.018;4.474;2023-02-18T07:20:16;11.20;99.90
22950;DHT22;11641;51.018;4.474;2023-02-18T07:22:44;11.30;99.90
22950;DHT22;11641;51.018;4.474;2023-02-18T07:25:10;11.20;99.90
22950;DHT22;11641;51.018;4.474;2023-02-18T07:27:36;11.40;99.90
22950;DHT22;11641;51.018;4.474;2023-02-18T07:30:01;11.30;99.90
22950;DHT22;11641;51.018;4.474;2023-02-18T07:32:29;11.40;99.90
22950;DHT22;11641;51.018;4.474;2023-02-18T07:34:56;11.30;99.90
22950;DHT22;11641;51.018;4.474;2023-02-18T07:37:21;11.40;99.90
22950;DHT22;11641;51.018;4.474;2023-02-18T07:39:47;11.50;99.90
22950;DHT22;11641;51.018;4.474;2023-02-18T07:42:13;11.40;99.90
22950;DHT22;11641;51.018;4.474;2023-02-18T07:44:40;11.60;99.90
22950;DHT22;11641;51.018;4.474;2023-02-18T07:47:06;11.60;99.90
22950;DHT22;11641;51.018;4.474;2023-02-18T07:49:33;11.60;99.90
22950;DHT22;11641;51.018;4.474;2023-02-18T07:51:59;11.60;99.90
22950;DHT22;11641;51.018;4.474;2023-02-18T07:54:25;11.60;99.90
22950;DHT22;11641;51.018;4.474;2023-02-18T07:56:51;11.70;99.90
22950;DHT22;11641;51.018;4.474;2023-02-18T07:59:17;11.70;99.90
22950;DHT22;11641;51.018;4.474;2023-02-18T08:01:43;11.70;99.90
22950;DHT22;11641;51.018;4.474;2023-02-18T08:04:11;11.70;99.90
22950;DHT22;11641;51.018;4.474;2023-02-18T08:06:39;11.80;99.90
22950;DHT22;11641;51.018;4.474;2023-02-18T08:09:06;11.90;99.90
22950;DHT22;11641;51.018;4.474;2023-02-18T08:11:34;11.90;99.90
22950;DHT22;11641;51.018;4.474;2023-02-18T08:14:00;11.70;99.90
22950;DHT22;11641;51.018;4.474;2023-02-18T08:16:26;11.80;99.90
22950;DHT22;11641;51.018;4.474;2023-02-18T08:18:53;11.80;99.90
22950;DHT22;11641;51.018;4.474;2023-02-18T08:21:20;11.80;99.90
22950;DHT22;11641;51.018;4.474;2023-02-18T08:23:46;11.70;99.90
22950;DHT22;11641;51.018;4.474;2023-02-18T08:26:13;12.00;99.90
22950;DHT22;11641;51.018;4.474;2023-02-18T08:28:42;12.10;99.90
22950;DHT22;11641;51.018;4.474;2023-02-18T08:31:19;12.10;99.90
22950;DHT22;11641;51.018;4.474;2023-02-18T08:33:46;12.20;99.90
22950;DHT22;11641;51.018;4.474;2023-02-18T08:36:11;12.00;99.90
22950;DHT22;11641;51.018;4.474;2023-02-18T08:38:37;11.90;99.90
22950;DHT22;11641;51.018;4.474;2023-02-18T08:41:05;12.00;99.90
22950;DHT22;11641;51.018;4.474;2023-02-18T08:43:31;12.00;99.90
22950;DHT22;11641;51.018;4.474;2023-02-18T08:45:58;12.10;99.90
22950;DHT22;11641;51.018;4.474;2023-02-18T08:48:23;12.20;99.90
22950;DHT22;11641;51.018;4.474;2023-02-18T08:50:49;12.10;99.90
22950;DHT22;11641;51.018;4.474;2023-02-18T08:53:16;12.20;99.90
22950;DHT22;11641;51.018;4.474;2023-02-18T08:55:42;12.10;99.90
22950;DHT22;11641;51.018;4.474;2023-02-18T08:58:08;12.10;99.90
22950;DHT22;11641;51.018;4.474;2023-02-18T09:00:37;12.30;99.90
22950;DHT22;11641;51.018;4.474;2023-02-18T09:03:05;12.40;99.90
22950;DHT22;11641;51.018;4.474;2023-02-18T09:05:33;12.50;99.90
22950;DHT22;11641;51.018;4.474;2023-02-18T09:07:59;12.70;99.90
22950;DHT22;11641;51.018;4.474;2023-02-18T09:10:24;12.50;99.90
22950;DHT22;11641;51.018;4.474;2023-02-18T09:12:50;12.50;99.90
22950;DHT22;11641;51.018;4.474;2023-02-18T09:15:16;12.40;99.90
22950;DHT22;11641;51.018;4.474;2023-02-18T09:17:42;12.50;99.90
22950;DHT22;11641;51.018;4.474;2023-02-18T09:20:08;12.60;99.90
22950;DHT22;11641;51.018;4.474;2023-02-18T09:22:36;12.70;99.90
22950;DHT22;11641;51.018;4.474;2023-02-18T09:25:04;12.70;99.90
22950;DHT22;11641;51.018;4.474;2023-02-18T09:27:29;12.80;99.90
22950;DHT22;11641;51.018;4.474;2023-02-18T09:29:55;12.80;99.90
22950;DHT22;11641;51.018;4.474;2023-02-18T09:32:21;12.50;99.90
22950;DHT22;11641;51.018;4.474;2023-02-18T09:34:46;12.60;99.90
22950;DHT22;11641;51.018;4.474;2023-02-18T09:37:12;12.70;99.90
22950;DHT22;11641;51.018;4.474;2023-02-18T09:39:39;12.80;99.90
22950;DHT22;11641;51.018;4.474;2023-02-18T09:42:12;12.80;99.90
22950;DHT22;11641;51.018;4.474;2023-02-18T09:44:50;12.50;99.90
22950;DHT22;11641;51.018;4.474;2023-02-18T09:47:36;12.50;99.90
22950;DHT22;11641;51.018;4.474;2023-02-18T09:50:28;12.50;99.90
22950;DHT22;11641;51.018;4.474;2023-02-18T09:52:59;12.50;99.90
22950;DHT22;11641;51.018;4.474;2023-02-18T09:58:02;12.40;99.90
22950;DHT22;11641;51.018;4.474;2023-02-18T10:00:36;12.20;99.90
22950;DHT22;11641;51.018;4.474;2023-02-18T10:06:15;12.50;99.90
22950;DHT22;11641;51.018;4.474;2023-02-18T10:08:46;12.60;99.90
22950;DHT22;11641;51.018;4.474;2023-02-18T10:11:15;12.60;99.90
22950;DHT22;11641;51.018;4.474;2023-02-18T10:13:42;12.40;99.90
22950;DHT22;11641;51.018;4.474;2023-02-18T10:16:09;12.50;99.90
22950;DHT22;11641;51.018;4.474;2023-02-18T10:18:42;12.40;99.90
22950;DHT22;11641;51.018;4.474;2023-02-18T10:21:11;12.60;99.90
22950;DHT22;11641;51.018;4.474;2023-02-18T10:23:46;12.70;99.90
22950;DHT22;11641;51.018;4.474;2023-02-18T10:26:15;12.50;99.90
22950;DHT22;11641;51.018;4.474;2023-02-18T10:28:42;12.50;99.90
22950;DHT22;11641;51.018;4.474;2023-02-18T10:31:10;12.50;99.90
22950;DHT22;11641;51.018;4.474;2023-02-18T10:33:45;12.60;99.90
22950;DHT22;11641;51.018;4.474;2023-02-18T10:44:32;12.70;99.90
22950;DHT22;11641;51.018;4.474;2023-02-18T10:52:43;12.50;99.90
22950;DHT22;11641;51.018;4.474;2023-02-18T10:55:12;12.50;99.90
22950;DHT22;11641;51.018;4.474;2023-02-18T10:57:55;12.60;99.90
22950;DHT22;11641;51.018;4.474;2023-02-18T11:00:24;12.70;99.90
22950;DHT22;11641;51.018;4.474;2023-02-18T11:03:23;12.60;99.90
22950;DHT22;11641;51.018;4.474;2023-02-18T11:05:51;12.60;99.90
22950;DHT22;11641;51.018;4.474;2023-02-18T11:08:28;12.70;99.90
22950;DHT22;11641;51.018;4.474;2023-02-18T11:10:57;12.80;99.90
22950;DHT22;11641;51.018;4.474;2023-02-18T11:13:28;12.90;99.90
22950;DHT22;11641;51.018;4.474;2023-02-18T11:16:01;12.80;99.90
22950;DHT22;11641;51.018;4.474;2023-02-18T11:18:37;12.70;99.90
22950;DHT22;11641;51.018;4.474;2023-02-18T11:21:17;12.70;99.90
22950;DHT22;11641;51.018;4.474;2023-02-18T11:23:50;12.60;99.90
22950;DHT22;11641;51.018;4.474;2023-02-18T11:26:19;12.60;99.90
22950;DHT22;11641;51.018;4.474;2023-02-18T11:28:49;12.70;99.90
22950;DHT22;11641;51.018;4.474;2023-02-18T11:31:26;12.90;99.90
22950;DHT22;11641;51.018;4.474;2023-02-18T11:33:59;12.80;99.90
22950;DHT22;11641;51.018;4.474;2023-02-18T11:36:32;12.90;99.90
22950;DHT22;11641;51.018;4.474;2023-02-18T11:41:37;13.00;99.90
22950;DHT22;11641;51.018;4.474;2023-02-18T11:44:06;13.10;99.90
22950;DHT22;11641;51.018;4.474;2023-02-18T11:46:32;13.10;99.90
22950;DHT22;11641;51.018;4.474;2023-02-18T11:49:21;13.00;99.90
22950;DHT22;11641;51.018;4.474;2023-02-18T11:51:47;13.10;99.90
22950;DHT22;11641;51.018;4.474;2023-02-18T11:54:29;13.10;99.90
22950;DHT22;11641;51.018;4.474;2023-02-18T11:57:03;13.00;99.90
22950;DHT22;11641;51.018;4.474;2023-02-18T11:59:34;13.00;99.90
22950;DHT22;11641;51.018;4.474;2023-02-18T12:04:47;12.90;99.90
22950;DHT22;11641;51.018;4.474;2023-02-18T12:10:34;13.00;99.90
22950;DHT22;11641;51.018;4.474;2023-02-18T12:24:23;13.20;99.90
22950;DHT22;11641;51.018;4.474;2023-02-18T12:32:11;13.10;99.90
22950;DHT22;11641;51.018;4.474;2023-02-18T12:43:11;13.20;99.90
22950;DHT22;11641;51.018;4.474;2023-02-18T12:45:54;13.20;99.90
22950;DHT22;11641;51.018;4.474;2023-02-18T12:51:18;13.30;99.90
22950;DHT22;11641;51.018;4.474;2023-02-18T12:54:10;13.30;99.90
22950;DHT22;11641;51.018;4.474;2023-02-18T12:59:39;13.20;99.90
22950;DHT22;11641;51.018;4.474;2023-02-18T13:13:38;12.80;99.90
22950;DHT22;11641;51.018;4.474;2023-02-18T13:16:12;12.70;99.90
22950;DHT22;11641;51.018;4.474;2023-02-18T13:19:01;12.80;99.90
22950;DHT22;11641;51.018;4.474;2023-02-18T13:21:28;12.80;99.90
22950;DHT22;11641;51.018;4.474;2023-02-18T13:24:01;12.80;99.90
22950;DHT22;11641;51.018;4.474;2023-02-18T13:26:31;12.80;99.90
22950;DHT22;11641;51.018;4.474;2023-02-18T13:29:18;12.90;99.90
22950;DHT22;11641;51.018;4.474;2023-02-18T13:32:14;12.80;99.90
22950;DHT22;11641;51.018;4.474;2023-02-18T13:34:59;12.80;99.90
22950;DHT22;11641;51.018;4.474;2023-02-18T13:40:24;12.80;99.90
22950;DHT22;11641;51.018;4.474;2023-02-18T13:42:53;12.70;99.90
22950;DHT22;11641;51.018;4.474;2023-02-18T13:45:26;12.70;99.90
22950;DHT22;11641;51.018;4.474;2023-02-18T13:47:53;12.70;99.90
22950;DHT22;11641;51.018;4.474;2023-02-18T13:52:48;12.70;99.90
22950;DHT22;11641;51.018;4.474;2023-02-18T13:55:22;12.60;99.90
22950;DHT22;11641;51.018;4.474;2023-02-18T13:57:53;12.60;99.90
22950;DHT22;11641;51.018;4.474;2023-02-18T14:00:34;12.70;99.90
22950;DHT22;11641;51.018;4.474;2023-02-18T14:08:48;12.80;99.90
22950;DHT22;11641;51.018;4.474;2023-02-18T14:13:43;12.80;99.90
22950;DHT22;11641;51.018;4.474;2023-02-18T14:16:14;12.70;99.90
22950;DHT22;11641;51.018;4.474;2023-02-18T14:23:41;12.80;99.90
22950;DHT22;11641;51.018;4.474;2023-02-18T14:28:52;12.80;99.90
22950;DHT22;11641;51.018;4.474;2023-02-18T14:42:53;12.80;99.90
22950;DHT22;11641;51.018;4.474;2023-02-18T14:45:42;12.90;99.90
22950;DHT22;11641;51.018;4.474;2023-02-18T14:51:15;12.90;99.90
22950;DHT22;11641;51.018;4.474;2023-02-18T14:53:45;12.70;99.90
22950;DHT22;11641;51.018;4.474;2023-02-18T14:56:14;12.80;99.90
22950;DHT22;11641;51.018;4.474;2023-02-18T14:58:56;12.80;99.90
22950;DHT22;11641;51.018;4.474;2023-02-18T15:01:27;12.70;99.90
22950;DHT22;11641;51.018;4.474;2023-02-18T15:03:56;12.60;99.90
22950;DHT22;11641;51.018;4.474;2023-02-18T15:08:50;12.70;99.90
22950;DHT22;11641;51.018;4.474;2023-02-18T15:11:16;12.80;99.90
22950;DHT22;11641;51.018;4.474;2023-02-18T15:13:47;12.50;99.90
22950;DHT22;11641;51.018;4.474;2023-02-18T15:16:39;12.60;99.90
22950;DHT22;11641;51.018;4.474;2023-02-18T15:19:06;12.50;99.90
22950;DHT22;11641;51.018;4.474;2023-02-18T15:21:43;12.40;99.90
22950;DHT22;11641;51.018;4.474;2023-02-18T15:24:26;12.50;99.90
22950;DHT22;11641;51.018;4.474;2023-02-18T15:27:03;12.40;99.90
22950;DHT22;11641;51.018;4.474;2023-02-18T15:29:33;12.40;99.90
22950;DHT22;11641;51.018;4.474;2023-02-18T15:32:15;12.20;99.90
22950;DHT22;11641;51.018;4.474;2023-02-18T15:34:42;12.40;99.90
22950;DHT22;11641;51.018;4.474;2023-02-18T15:37:11;12.50;99.90
22950;DHT22;11641;51.018;4.474;2023-02-18T15:39:40;12.60;99.90
22950;DHT22;11641;51.018;4.474;2023-02-18T15:45:02;12.70;99.90
22950;DHT22;11641;51.018;4.474;2023-02-18T15:47:28;12.60;99.90
22950;DHT22;11641;51.018;4.474;2023-02-18T15:49:57;12.60;99.90
22950;DHT22;11641;51.018;4.474;2023-02-18T15:52:29;12.50;99.90
22950;DHT22;11641;51.018;4.474;2023-02-18T15:55:01;12.40;99.90
22950;DHT22;11641;51.018;4.474;2023-02-18T15:57:30;12.50;99.90
22950;DHT22;11641;51.018;4.474;2023-02-18T16:00:12;12.60;99.90
22950;DHT22;11641;51.018;4.474;2023-02-18T16:02:55;12.70;99.90
22950;DHT22;11641;51.018;4.474;2023-02-18T16:05:27;12.70;99.90
22950;DHT22;11641;51.018;4.474;2023-02-18T16:07:58;12.60;99.90
22950;DHT22;11641;51.018;4.474;2023-02-18T16:10:41;12.70;99.90
22950;DHT22;11641;51.018;4.474;2023-02-18T16:13:15;12.60;99.90
22950;DHT22;11641;51.018;4.474;2023-02-18T16:15:43;12.60;99.90
22950;DHT22;11641;51.018;4.474;2023-02-18T16:18:38;12.70;99.90
22950;DHT22;11641;51.018;4.474;2023-02-18T16:21:05;12.80;99.90
22950;DHT22;11641;51.018;4.474;2023-02-18T16:23:53;12.70;99.90
22950;DHT22;11641;51.018;4.474;2023-02-18T16:26:40;12.70;99.90
22950;DHT22;11641;51.018;4.474;2023-02-18T16:29:32;12.50;99.90
22950;DHT22;11641;51.018;4.474;2023-02-18T16:31:58;12.50;99.90
22950;DHT22;11641;51.018;4.474;2023-02-18T16:34:24;12.40;99.90
22950;DHT22;11641;51.018;4.474;2023-02-18T16:36:50;12.60;99.90
22950;DHT22;11641;51.018;4.474;2023-02-18T16:39:34;12.50;99.90
22950;DHT22;11641;51.018;4.474;2023-02-18T16:42:00;12.50;99.90
22950;DHT22;11641;51.018;4.474;2023-02-18T16:44:26;12.40;99.90
22950;DHT22;11641;51.018;4.474;2023-02-18T16:46:52;12.40;99.90
22950;DHT22;11641;51.018;4.474;2023-02-18T16:49:18;12.40;99.90
22950;DHT22;11641;51.018;4.474;2023-02-18T16:51:45;12.40;99.90
22950;DHT22;11641;51.018;4.474;2023-02-18T16:54:13;12.50;99.90
22950;DHT22;11641;51.018;4.474;2023-02-18T16:56:39;12.50;99.90
22950;DHT22;11641;51.018;4.474;2023-02-18T16:59:05;12.50;99.90
22950;DHT22;11641;51.018;4.474;2023-02-18T17:01:32;12.50;99.90
22950;DHT22;11641;51.018;4.474;2023-02-18T17:04:01;12.50;99.90
22950;DHT22;11641;51.018;4.474;2023-02-18T17:06:27;12.40;99.90
22950;DHT22;11641;51.018;4.474;2023-02-18T17:08:53;12.40;99.90
22950;DHT22;11641;51.018;4.474;2023-02-18T17:11:25;12.30;99.90
22950;DHT22;11641;51.018;4.474;2023-02-18T17:13:53;12.30;99.90
22950;DHT22;11641;51.018;4.474;2023-02-18T17:16:20;12.20;99.90
22950;DHT22;11641;51.018;4.474;2023-02-18T17:18:46;12.10;99.90
22950;DHT22;11641;51.018;4.474;2023-02-18T17:21:17;12.20;99.90
22950;DHT22;11641;51.018;4.474;2023-02-18T17:23:46;12.40;99.90
22950;DHT22;11641;51.018;4.474;2023-02-18T17:28:46;12.20;99.90
22950;DHT22;11641;51.018;4.474;2023-02-18T17:31:17;12.10;99.90
22950;DHT22;11641;51.018;4.474;2023-02-18T17:33:44;12.20;99.90
22950;DHT22;11641;51.018;4.474;2023-02-18T17:36:11;12.30;99.90
22950;DHT22;11641;51.018;4.474;2023-02-18T17:38:38;12.30;99.90
22950;DHT22;11641;51.018;4.474;2023-02-18T17:41:05;12.30;99.90
22950;DHT22;11641;51.018;4.474;2023-02-18T17:43:31;12.30;99.90
22950;DHT22;11641;51.018;4.474;2023-02-18T17:45:57;12.30;99.90
22950;DHT22;11641;51.018;4.474;2023-02-18T17:48:26;12.20;99.90
22950;DHT22;11641;51.018;4.474;2023-02-18T17:50:55;12.20;99.90
22950;DHT22;11641;51.018;4.474;2023-02-18T17:53:24;12.10;99.90
22950;DHT22;11641;51.018;4.474;2023-02-18T17:55:52;12.10;99.90
22950;DHT22;11641;51.018;4.474;2023-02-18T17:58:18;12.00;99.90
22950;DHT22;11641;51.018;4.474;2023-02-18T18:00:48;12.10;99.90
22950;DHT22;11641;51.018;4.474;2023-02-18T18:03:14;12.10;99.90
22950;DHT22;11641;51.018;4.474;2023-02-18T18:05:43;12.10;99.90
22950;DHT22;11641;51.018;4.474;2023-02-18T18:08:09;12.00;99.90
22950;DHT22;11641;51.018;4.474;2023-02-18T18:10:44;12.00;99.90
22950;DHT22;11641;51.018;4.474;2023-02-18T18:13:20;12.00;99.90
22950;DHT22;11641;51.018;4.474;2023-02-18T18:15:46;12.10;99.90
22950;DHT22;11641;51.018;4.474;2023-02-18T18:18:12;12.10;99.90
22950;DHT22;11641;51.018;4.474;2023-02-18T18:20:42;12.20;99.90
22950;DHT22;11641;51.018;4.474;2023-02-18T18:23:12;12.40;99.90